createdAt,value
2022-08-31T00:02:30.344Z,2.87
2022-08-31T00:04:59.013Z,2.63
2022-08-31T00:07:28.421Z,2.40
2022-08-31T00:09:58.340Z,3.67
2022-08-31T00:12:26.960Z,3.10
2022-08-31T00:14:55.578Z,2.13
2022-08-31T00:17:24.159Z,2.90
2022-08-31T00:19:52.811Z,2.20
2022-08-31T00:22:22.328Z,3.57
2022-08-31T00:24:50.936Z,2.87
2022-08-31T00:27:21.909Z,2.20
2022-08-31T00:29:50.525Z,2.30
2022-08-31T00:32:21.646Z,2.90
2022-08-31T00:34:52.331Z,2.10
2022-08-31T00:37:21.419Z,2.40
2022-08-31T00:39:50.163Z,3.73
2022-08-31T00:42:18.745Z,2.77
2022-08-31T00:44:48.749Z,2.80
2022-08-31T00:47:17.417Z,3.23
2022-08-31T00:49:50.014Z,2.33
2022-08-31T00:52:21.605Z,3.20
2022-08-31T00:54:53.239Z,3.70
2022-08-31T00:57:24.665Z,3.13
2022-08-31T01:00:07.061Z,5.27
2022-08-31T01:02:35.769Z,3.67
2022-08-31T01:05:04.414Z,3.63
2022-08-31T01:07:33.137Z,4.27
2022-08-31T01:10:01.923Z,2.57
2022-08-31T01:12:30.725Z,2.50
2022-08-31T01:14:59.404Z,3.63
2022-08-31T01:17:29.462Z,4.00
2022-08-31T01:20:01.121Z,3.30
2022-08-31T01:22:32.170Z,3.30
2022-08-31T01:25:02.252Z,2.37
2022-08-31T01:27:33.835Z,4.83
2022-08-31T01:30:03.028Z,3.60
2022-08-31T01:32:31.713Z,3.13
2022-08-31T01:35:00.331Z,2.63
2022-08-31T01:37:29.352Z,2.47
2022-08-31T01:39:59.043Z,3.90
2022-08-31T01:42:33.225Z,2.30
2022-08-31T01:45:03.509Z,2.33
2022-08-31T01:47:32.143Z,2.53
2022-08-31T01:50:00.748Z,3.40
2022-08-31T01:52:29.736Z,2.57
2022-08-31T01:54:58.377Z,3.20
2022-08-31T01:57:34.107Z,2.50
2022-08-31T02:00:07.241Z,5.07
2022-08-31T02:02:35.898Z,3.00
2022-08-31T02:05:04.945Z,3.47
2022-08-31T02:07:33.556Z,3.07
2022-08-31T02:10:02.197Z,2.63
2022-08-31T02:12:30.831Z,3.40
2022-08-31T02:14:59.446Z,3.03
2022-08-31T02:17:29.489Z,2.67
2022-08-31T02:19:58.231Z,3.23
2022-08-31T02:22:26.885Z,4.60
2022-08-31T02:24:55.484Z,3.03
2022-08-31T02:27:24.494Z,4.43
2022-08-31T02:29:53.094Z,3.87
2022-08-31T02:32:22.133Z,2.93
2022-08-31T02:34:52.133Z,3.63
2022-08-31T02:37:21.150Z,3.20
2022-08-31T02:39:50.161Z,2.80
2022-08-31T02:42:19.798Z,3.47
2022-08-31T02:44:48.471Z,3.87
2022-08-31T02:47:17.084Z,3.93
2022-08-31T02:49:45.704Z,2.77
2022-08-31T02:52:15.624Z,4.27
2022-08-31T02:54:44.219Z,3.10
2022-08-31T02:57:13.846Z,3.00
2022-08-31T02:59:42.468Z,3.03
2022-08-31T03:02:11.216Z,3.27
2022-08-31T03:04:39.927Z,3.03
2022-08-31T03:07:08.549Z,3.83
2022-08-31T03:09:38.532Z,3.07
2022-08-31T03:12:07.232Z,3.17
2022-08-31T03:14:35.872Z,2.90
2022-08-31T03:17:04.493Z,3.30
2022-08-31T03:19:33.085Z,2.77
2022-08-31T03:22:01.764Z,3.07
2022-08-31T03:24:31.255Z,3.10
2022-08-31T03:27:01.222Z,3.40
2022-08-31T03:29:29.842Z,3.17
2022-08-31T03:31:58.495Z,3.27
2022-08-31T03:34:27.135Z,3.33
2022-08-31T03:36:55.721Z,2.90
2022-08-31T03:39:24.332Z,3.93
2022-08-31T03:41:52.911Z,3.30
2022-08-31T03:44:23.761Z,3.00
2022-08-31T03:46:55.287Z,3.23
2022-08-31T03:49:25.124Z,3.87
2022-08-31T03:51:53.771Z,3.20
2022-08-31T03:54:22.397Z,3.70
2022-08-31T03:56:51.053Z,2.93
2022-08-31T03:59:23.130Z,4.40
2022-08-31T04:01:51.779Z,3.63
2022-08-31T04:04:20.418Z,6.27
2022-08-31T04:06:49.075Z,4.00
2022-08-31T04:09:17.737Z,4.23
2022-08-31T04:11:46.726Z,3.30
2022-08-31T04:14:15.596Z,4.77
2022-08-31T04:16:45.670Z,4.33
2022-08-31T04:19:15.987Z,4.10
2022-08-31T04:21:45.213Z,5.03
2022-08-31T04:24:14.337Z,4.57
2022-08-31T04:26:43.129Z,3.87
2022-08-31T04:29:13.685Z,4.23
2022-08-31T04:31:42.465Z,4.60
2022-08-31T04:34:12.421Z,4.63
2022-08-31T04:36:41.085Z,4.40
2022-08-31T04:39:10.066Z,3.67
2022-08-31T04:41:40.090Z,3.97
2022-08-31T04:44:08.838Z,4.30
2022-08-31T04:46:38.179Z,4.40
2022-08-31T04:49:07.893Z,4.93
2022-08-31T04:51:38.735Z,4.10
2022-08-31T04:54:09.125Z,7.17
2022-08-31T04:56:39.874Z,5.07
2022-08-31T04:59:09.733Z,5.97
2022-08-31T05:01:42.928Z,4.20
2022-08-31T05:04:12.864Z,4.67
2022-08-31T05:06:44.529Z,4.77
2022-08-31T05:09:14.679Z,4.77
2022-08-31T05:11:43.416Z,4.73
2022-08-31T05:14:12.098Z,4.83
2022-08-31T05:16:41.471Z,4.83
2022-08-31T05:19:10.203Z,4.80
2022-08-31T05:21:39.953Z,5.10
2022-08-31T05:24:10.991Z,4.20
2022-08-31T05:26:42.059Z,5.53
2022-08-31T05:29:12.077Z,4.50
2022-08-31T05:31:40.828Z,4.07
2022-08-31T05:34:09.572Z,5.07
2022-08-31T05:36:38.192Z,5.00
2022-08-31T05:39:11.765Z,6.10
2022-08-31T05:41:42.352Z,5.40
2022-08-31T05:44:12.359Z,5.43
2022-08-31T05:46:41.071Z,4.73
2022-08-31T05:49:10.950Z,4.07
2022-08-31T05:51:40.993Z,4.53
2022-08-31T05:54:10.760Z,4.67
2022-08-31T05:56:42.849Z,5.10
2022-08-31T05:59:13.144Z,6.07
2022-08-31T06:01:42.680Z,6.17
2022-08-31T06:04:11.966Z,8.13
2022-08-31T06:06:41.264Z,7.33
2022-08-31T06:09:11.197Z,6.60
2022-08-31T06:11:42.205Z,6.20
2022-08-31T06:14:12.017Z,5.87
2022-08-31T06:16:44.513Z,6.10
2022-08-31T06:19:13.837Z,8.33
2022-08-31T06:21:50.002Z,8.13
2022-08-31T06:24:19.957Z,7.17
2022-08-31T06:26:57.936Z,5.87
2022-08-31T06:29:31.239Z,6.13
2022-08-31T06:32:06.017Z,6.17
2022-08-31T06:34:34.655Z,7.97
2022-08-31T06:37:03.680Z,8.50
2022-08-31T06:39:32.501Z,7.03
2022-08-31T06:42:01.085Z,7.80
2022-08-31T06:44:29.782Z,7.27
2022-08-31T06:46:58.601Z,7.00
2022-08-31T06:49:28.553Z,8.63
2022-08-31T06:52:00.195Z,8.83
2022-08-31T06:54:30.459Z,7.30
2022-08-31T06:56:59.772Z,10.50
2022-08-31T06:59:29.757Z,9.20
2022-08-31T07:01:59.517Z,8.83
2022-08-31T07:04:29.693Z,9.70
2022-08-31T07:06:58.308Z,8.87
2022-08-31T07:09:27.388Z,9.83
2022-08-31T07:11:56.033Z,10.37
2022-08-31T07:14:25.332Z,10.13
2022-08-31T07:16:54.529Z,9.50
2022-08-31T07:19:23.107Z,10.23
2022-08-31T07:21:54.460Z,9.70
2022-08-31T07:24:25.108Z,10.03
2022-08-31T07:26:57.889Z,9.30
2022-08-31T07:29:30.220Z,10.70
2022-08-31T07:31:59.550Z,9.50
2022-08-31T07:34:29.137Z,9.30
2022-08-31T07:37:17.825Z,7.77
2022-08-31T07:40:07.779Z,8.77
2022-08-31T07:42:39.206Z,9.10
2022-08-31T07:45:09.361Z,9.37
2022-08-31T07:47:45.947Z,9.47
2022-08-31T07:50:15.617Z,8.10
2022-08-31T07:52:47.384Z,7.90
2022-08-31T07:55:17.678Z,9.90
2022-08-31T07:57:46.660Z,10.87
2022-08-31T08:00:18.029Z,11.37
2022-08-31T08:02:53.273Z,10.57
2022-08-31T08:05:26.724Z,10.10
2022-08-31T08:08:06.018Z,10.13
2022-08-31T08:10:36.168Z,11.10
2022-08-31T08:13:05.793Z,10.53
2022-08-31T08:15:36.098Z,10.03
2022-08-31T08:18:05.657Z,9.80
2022-08-31T08:20:38.271Z,10.40
2022-08-31T08:23:13.818Z,9.03
2022-08-31T08:25:43.171Z,9.07
2022-08-31T08:28:38.123Z,8.67
2022-08-31T08:31:06.284Z,8.73
2022-08-31T08:33:35.759Z,9.20
2022-08-31T08:36:07.381Z,8.60
2022-08-31T08:38:39.939Z,7.40
2022-08-31T08:41:09.902Z,7.83
2022-08-31T08:43:40.014Z,7.93
2022-08-31T08:46:31.680Z,7.47
2022-08-31T08:49:04.813Z,7.90
2022-08-31T08:51:35.597Z,7.27
2022-08-31T08:54:09.051Z,7.23
2022-08-31T08:56:46.931Z,7.73
2022-08-31T08:59:19.318Z,5.77
2022-08-31T09:01:49.954Z,6.00
2022-08-31T09:04:24.878Z,5.43
2022-08-31T09:06:57.152Z,4.93
2022-08-31T09:09:34.736Z,4.10
2022-08-31T09:12:15.117Z,4.53
2022-08-31T09:14:49.671Z,4.33
2022-08-31T09:17:25.798Z,3.17
2022-08-31T09:20:01.600Z,2.90
2022-08-31T09:22:30.922Z,3.93
2022-08-31T09:25:03.467Z,5.50
2022-08-31T09:27:40.774Z,4.00
2022-08-31T09:30:10.077Z,5.23
2022-08-31T09:32:38.675Z,5.20
2022-08-31T09:35:09.148Z,4.97
2022-08-31T09:37:40.305Z,5.27
2022-08-31T09:40:16.839Z,4.50
2022-08-31T09:43:03.627Z,4.13
2022-08-31T09:45:38.707Z,4.37
2022-08-31T09:48:11.156Z,4.93
2022-08-31T09:50:44.850Z,3.67
2022-08-31T09:53:33.272Z,8.00
2022-08-31T09:56:13.956Z,3.23
2022-08-31T09:58:46.376Z,4.30
2022-08-31T10:01:23.016Z,4.97
2022-08-31T10:03:52.832Z,2.77
2022-08-31T10:06:46.137Z,2.73
2022-08-31T10:09:22.339Z,3.40
2022-08-31T10:11:54.886Z,2.67
2022-08-31T10:14:26.949Z,3.07
2022-08-31T10:17:00.166Z,2.80
2022-08-31T10:19:32.622Z,3.67
2022-08-31T10:22:03.844Z,3.33
2022-08-31T10:24:39.079Z,3.30
2022-08-31T10:27:16.482Z,4.33
2022-08-31T10:29:49.238Z,3.27
2022-08-31T10:32:23.680Z,4.97
2022-08-31T10:35:09.160Z,4.03
2022-08-31T10:37:50.912Z,4.17
2022-08-31T10:40:20.802Z,3.73
2022-08-31T10:42:59.358Z,3.70
2022-08-31T10:45:30.441Z,4.17
2022-08-31T10:47:59.293Z,5.00
2022-08-31T10:50:30.265Z,3.23
2022-08-31T10:53:05.801Z,3.90
2022-08-31T10:55:37.340Z,4.67
2022-08-31T10:58:14.345Z,3.70
2022-08-31T11:00:49.942Z,4.67
2022-08-31T11:03:20.479Z,3.40
2022-08-31T11:05:53.856Z,4.37
2022-08-31T11:08:35.125Z,3.43
2022-08-31T11:11:05.878Z,3.77
2022-08-31T11:13:51.185Z,3.60
2022-08-31T11:16:26.976Z,2.60
2022-08-31T11:19:16.968Z,3.30
2022-08-31T11:21:54.548Z,2.50
2022-08-31T11:24:37.515Z,2.83
2022-08-31T11:27:11.700Z,3.63
2022-08-31T11:29:44.566Z,4.23
2022-08-31T11:32:16.769Z,3.77
2022-08-31T11:34:49.551Z,3.37
2022-08-31T11:37:36.765Z,4.00
2022-08-31T11:40:06.222Z,5.53
2022-08-31T11:42:53.559Z,5.43
2022-08-31T11:45:36.188Z,4.77
2022-08-31T11:48:06.741Z,5.53
2022-08-31T11:50:56.279Z,5.10
2022-08-31T11:53:30.689Z,4.47
2022-08-31T11:56:01.771Z,5.23
2022-08-31T11:58:33.643Z,3.60
2022-08-31T12:01:09.343Z,5.10
2022-08-31T12:03:40.380Z,4.30
2022-08-31T12:06:10.682Z,4.00
2022-08-31T12:08:52.448Z,5.70
2022-08-31T12:11:29.853Z,4.83
2022-08-31T12:14:01.220Z,5.40
2022-08-31T12:16:37.700Z,3.40
2022-08-31T12:19:38.749Z,4.03
2022-08-31T12:22:31.089Z,3.67
2022-08-31T12:25:06.516Z,4.50
2022-08-31T12:27:40.077Z,4.00
2022-08-31T12:30:13.733Z,4.00
2022-08-31T12:32:45.251Z,3.50
2022-08-31T12:35:16.271Z,3.63
2022-08-31T12:37:44.924Z,5.43
2022-08-31T12:40:16.864Z,3.47
2022-08-31T12:42:50.729Z,4.83
2022-08-31T12:45:19.851Z,4.13
2022-08-31T12:47:57.272Z,3.60
2022-08-31T12:50:32.737Z,5.23
2022-08-31T12:53:20.373Z,3.90
2022-08-31T12:55:56.044Z,3.83
2022-08-31T12:58:32.257Z,5.35
2022-08-31T13:01:09.181Z,5.50
2022-08-31T13:03:40.209Z,5.65
2022-08-31T13:06:10.705Z,4.80
2022-08-31T13:08:40.508Z,4.15
2022-08-31T13:11:22.888Z,5.00
2022-08-31T13:13:52.423Z,4.07
2022-08-31T13:16:21.460Z,4.65
2022-08-31T13:18:59.313Z,6.10
2022-08-31T13:21:28.293Z,6.03
2022-08-31T13:24:07.211Z,5.40
2022-08-31T13:26:38.464Z,4.80
2022-08-31T13:29:09.977Z,5.38
2022-08-31T13:31:48.072Z,5.20
2022-08-31T13:34:19.079Z,5.15
2022-08-31T13:36:51.795Z,4.32
2022-08-31T13:39:27.093Z,4.60
2022-08-31T13:41:58.106Z,5.63
2022-08-31T13:44:33.617Z,5.97
2022-08-31T13:47:05.333Z,5.47
2022-08-31T13:49:37.680Z,4.47
2022-08-31T13:52:07.705Z,5.38
2022-08-31T13:54:37.338Z,5.95
2022-08-31T13:57:28.404Z,5.22
2022-08-31T14:00:22.369Z,5.30
2022-08-31T14:02:51.138Z,5.63
2022-08-31T14:05:30.767Z,4.85
2022-08-31T14:08:01.981Z,4.63
2022-08-31T14:10:35.053Z,4.70
2022-08-31T14:13:05.005Z,6.05
2022-08-31T14:15:38.624Z,5.35
2022-08-31T14:18:26.755Z,4.90
2022-08-31T14:21:22.639Z,5.25
2022-08-31T14:23:53.399Z,4.63
2022-08-31T14:26:26.189Z,4.30
2022-08-31T14:28:57.111Z,4.38
2022-08-31T14:31:27.044Z,5.82
2022-08-31T14:34:07.982Z,4.40
2022-08-31T14:36:44.639Z,4.90
2022-08-31T14:39:13.763Z,4.60
2022-08-31T14:41:42.362Z,3.97
2022-08-31T14:44:11.012Z,4.30
2022-08-31T14:46:40.713Z,5.17
2022-08-31T14:49:10.751Z,4.25
2022-08-31T14:51:43.451Z,4.60
2022-08-31T14:54:12.341Z,4.20
2022-08-31T14:56:45.288Z,5.32
2022-08-31T14:59:15.971Z,3.27
2022-08-31T15:01:45.488Z,4.55
2022-08-31T15:04:15.366Z,4.13
2022-08-31T15:06:48.910Z,3.33
2022-08-31T15:09:17.861Z,4.23
2022-08-31T15:11:46.759Z,3.60
2022-08-31T15:14:15.411Z,5.00
2022-08-31T15:16:45.475Z,3.30
2022-08-31T15:19:14.736Z,3.10
2022-08-31T15:21:52.805Z,3.20
2022-08-31T15:24:31.583Z,3.63
2022-08-31T15:27:01.389Z,3.63
2022-08-31T15:29:30.191Z,3.73
2022-08-31T15:32:00.393Z,4.07
2022-08-31T15:34:30.246Z,4.93
2022-08-31T15:37:02.041Z,3.60
2022-08-31T15:39:32.524Z,3.00
2022-08-31T15:42:02.746Z,3.77
2022-08-31T15:44:33.421Z,4.67
2022-08-31T15:47:21.736Z,3.40
2022-08-31T15:49:51.721Z,3.77
2022-08-31T15:52:21.788Z,3.53
2022-08-31T15:54:50.468Z,3.50
2022-08-31T15:57:22.955Z,3.37
2022-08-31T15:59:51.868Z,2.93
2022-08-31T16:02:21.128Z,3.23
2022-08-31T16:04:51.219Z,3.97
2022-08-31T16:07:22.569Z,3.50
2022-08-31T16:09:52.521Z,3.43
2022-08-31T16:12:22.849Z,3.50
2022-08-31T16:14:52.214Z,4.20
2022-08-31T16:17:20.820Z,3.60
2022-08-31T16:19:49.571Z,3.50
2022-08-31T16:22:18.940Z,4.53
2022-08-31T16:24:48.888Z,3.77
2022-08-31T16:27:19.829Z,4.50
2022-08-31T16:29:50.669Z,3.13
2022-08-31T16:32:19.364Z,3.30
2022-08-31T16:34:49.412Z,2.80
2022-08-31T16:37:18.200Z,3.73
2022-08-31T16:39:47.901Z,3.70
2022-08-31T16:42:17.532Z,2.80
2022-08-31T16:44:48.047Z,3.37
2022-08-31T16:47:18.491Z,2.67
2022-08-31T16:49:46.683Z,3.17
2022-08-31T16:52:18.013Z,3.83
2022-08-31T16:54:48.034Z,2.87
2022-08-31T16:57:18.704Z,2.63
2022-08-31T16:59:49.017Z,3.87
2022-08-31T17:02:18.382Z,2.73
2022-08-31T17:04:52.688Z,2.40
2022-08-31T17:07:23.831Z,3.77
2022-08-31T17:09:52.497Z,2.53
2022-08-31T17:12:25.957Z,3.13
2022-08-31T17:14:58.053Z,4.50
2022-08-31T17:17:27.703Z,2.90
2022-08-31T17:19:57.398Z,3.57
2022-08-31T17:22:32.526Z,2.50
2022-08-31T17:25:02.812Z,2.43
2022-08-31T17:27:33.323Z,2.67
2022-08-31T17:30:06.005Z,2.60
2022-08-31T17:32:36.523Z,3.30
2022-08-31T17:35:08.907Z,2.73
2022-08-31T17:37:37.651Z,3.00
2022-08-31T17:40:09.234Z,2.90
2022-08-31T17:42:38.048Z,3.03
2022-08-31T17:45:08.852Z,3.33
2022-08-31T17:47:37.744Z,3.13
2022-08-31T17:50:07.110Z,3.10
2022-08-31T17:52:35.843Z,2.93
2022-08-31T17:55:04.536Z,2.90
2022-08-31T17:57:33.201Z,2.97
2022-08-31T18:00:01.809Z,2.97
2022-08-31T18:02:34.466Z,3.20
2022-08-31T18:05:03.650Z,2.70
2022-08-31T18:07:38.461Z,3.77
2022-08-31T18:10:07.328Z,3.23
2022-08-31T18:12:40.942Z,2.80
2022-08-31T18:15:10.241Z,2.83
2022-08-31T18:17:40.501Z,2.73
2022-08-31T18:20:10.593Z,3.37
2022-08-31T18:22:41.903Z,2.87
2022-08-31T18:25:11.140Z,2.63
2022-08-31T18:27:39.889Z,2.97
2022-08-31T18:30:09.367Z,2.93
2022-08-31T18:32:38.256Z,3.40
2022-08-31T18:35:14.148Z,3.10
2022-08-31T18:37:43.085Z,2.80
2022-08-31T18:40:29.951Z,2.90
2022-08-31T18:43:24.965Z,2.87
2022-08-31T18:45:53.591Z,6.47
2022-08-31T18:48:26.244Z,3.00
2022-08-31T18:50:58.924Z,5.13
2022-08-31T18:53:30.217Z,2.80
2022-08-31T18:56:00.105Z,3.40
2022-08-31T18:58:29.899Z,2.60
2022-08-31T19:00:59.120Z,2.90
2022-08-31T19:03:28.599Z,2.83
2022-08-31T19:05:59.677Z,2.90
2022-08-31T19:08:28.384Z,3.03
2022-08-31T19:10:57.912Z,3.23
2022-08-31T19:13:29.802Z,3.10
2022-08-31T19:16:01.583Z,3.00
2022-08-31T19:18:32.408Z,3.03
2022-08-31T19:21:11.197Z,2.60
2022-08-31T19:23:39.855Z,2.90
2022-08-31T19:26:08.443Z,3.30
2022-08-31T19:28:37.105Z,2.77
2022-08-31T19:31:06.538Z,2.70
2022-08-31T19:33:35.357Z,2.60
2022-08-31T19:36:05.763Z,2.70
2022-08-31T19:38:34.417Z,2.97
2022-08-31T19:41:03.911Z,2.37
2022-08-31T19:43:54.813Z,2.63
2022-08-31T19:46:22.692Z,2.33
2022-08-31T19:48:51.544Z,2.07
2022-08-31T19:51:22.925Z,3.17
2022-08-31T19:53:52.078Z,2.80
2022-08-31T19:56:22.049Z,3.00
2022-08-31T19:58:51.432Z,3.23
2022-08-31T20:01:23.349Z,3.10
2022-08-31T20:03:52.189Z,3.20
2022-08-31T20:06:23.432Z,3.47
2022-08-31T20:08:52.155Z,3.60
2022-08-31T20:11:22.369Z,3.00
2022-08-31T20:13:51.383Z,3.90
2022-08-31T20:16:20.712Z,2.80
2022-08-31T20:18:49.685Z,3.50
2022-08-31T20:21:19.994Z,2.60
2022-08-31T20:23:51.040Z,2.50
2022-08-31T20:26:21.773Z,2.60
2022-08-31T20:28:53.378Z,2.80
2022-08-31T20:31:22.503Z,2.87
2022-08-31T20:33:51.308Z,2.97
2022-08-31T20:36:21.160Z,2.37
2022-08-31T20:38:56.709Z,2.30
2022-08-31T20:41:26.844Z,2.70
2022-08-31T20:43:56.836Z,3.00
2022-08-31T20:46:43.554Z,2.00
2022-08-31T20:49:25.716Z,3.03
2022-08-31T20:51:55.683Z,2.30
2022-08-31T20:54:26.521Z,2.40
2022-08-31T20:56:55.999Z,2.20
2022-08-31T20:59:25.011Z,2.30
2022-08-31T21:01:59.195Z,2.37
2022-08-31T21:04:28.966Z,2.23
2022-08-31T21:06:58.834Z,3.43
2022-08-31T21:09:28.919Z,3.10
2022-08-31T21:11:59.794Z,2.10
2022-08-31T21:14:29.564Z,1.93
2022-08-31T21:16:59.128Z,2.00
2022-08-31T21:19:27.736Z,2.17
2022-08-31T21:22:05.137Z,2.80
2022-08-31T21:24:36.102Z,2.10
2022-08-31T21:27:05.866Z,3.70
2022-08-31T21:29:35.405Z,2.67
2022-08-31T21:32:05.267Z,2.17
2022-08-31T21:34:34.293Z,2.17
2022-08-31T21:37:03.065Z,2.00
2022-08-31T21:39:32.369Z,1.60
2022-08-31T21:42:03.888Z,2.00
2022-08-31T21:44:32.549Z,1.70
2022-08-31T21:47:02.287Z,1.87
2022-08-31T21:49:30.990Z,2.10
2022-08-31T21:51:59.984Z,1.80
2022-08-31T21:54:29.549Z,1.90
2022-08-31T21:56:59.163Z,2.00
2022-08-31T21:59:30.314Z,1.60
2022-08-31T22:02:00.980Z,2.63
2022-08-31T22:04:31.557Z,1.90
2022-08-31T22:07:00.536Z,2.20
2022-08-31T22:09:31.638Z,2.10
2022-08-31T22:12:07.203Z,2.00
2022-08-31T22:14:38.241Z,2.93
2022-08-31T22:17:09.160Z,2.03
2022-08-31T22:19:39.225Z,2.10
2022-08-31T22:22:08.856Z,2.70
2022-08-31T22:24:40.426Z,2.20
2022-08-31T22:27:10.393Z,2.97
2022-08-31T22:29:41.301Z,2.13
2022-08-31T22:32:11.868Z,2.53
2022-08-31T22:34:41.136Z,2.00
2022-08-31T22:37:10.792Z,2.30
2022-08-31T22:39:42.311Z,2.37
2022-08-31T22:42:11.715Z,2.50
2022-08-31T22:44:43.008Z,2.13
2022-08-31T22:47:11.645Z,2.80
2022-08-31T22:49:40.296Z,2.40
2022-08-31T22:52:08.900Z,2.63
2022-08-31T22:54:37.513Z,2.57
2022-08-31T22:57:07.321Z,3.70
2022-08-31T22:59:35.941Z,2.53
2022-08-31T23:02:06.064Z,3.30
2022-08-31T23:04:36.201Z,2.43
2022-08-31T23:07:06.433Z,2.80
2022-08-31T23:09:35.647Z,3.10
2022-08-31T23:12:05.819Z,2.60
2022-08-31T23:14:34.485Z,2.83
2022-08-31T23:17:04.975Z,2.80
2022-08-31T23:19:36.811Z,2.70
2022-08-31T23:22:07.510Z,2.97
2022-08-31T23:24:37.732Z,3.10
2022-08-31T23:27:09.160Z,2.80
2022-08-31T23:29:39.965Z,2.80
2022-08-31T23:32:08.737Z,2.83
2022-08-31T23:34:38.712Z,2.80
2022-08-31T23:37:08.866Z,2.83
2022-08-31T23:39:38.519Z,3.53
2022-08-31T23:42:07.446Z,3.37
2022-08-31T23:44:41.243Z,3.23
2022-08-31T23:47:10.923Z,3.10
2022-08-31T23:49:42.378Z,2.83
2022-08-31T23:52:12.048Z,2.47
2022-08-31T23:54:40.925Z,2.80
2022-08-31T23:57:14.330Z,2.90
